Time;durP1;ratioP1;P1;durP2;ratioP2;P2;SDS_P1;SDS_P2;PMS_P1;PMS_P2;Temp;Humidity;BMP_temperature;BMP_pressure;BME280_temperature;BME280_humidity;BME280_pressure;Samples;Min_cycle;Max_cycle;Signal;HPM_P1;HPM_P2
2021/10/05 00:02:11;;;;;;;1.60;1.47;;;;;;;;;;4934452;29;20210;-73
2021/10/05 00:04:36;;;;;;;3.10;1.40;;;;;;;;;;4939488;28;20179;-73
2021/10/05 00:07:01;;;;;;;1.47;1.10;;;;;;;;;;4938567;28;20205;-73
2021/10/05 00:09:27;;;;;;;2.30;1.27;;;;;;;;;;4935831;28;20234;-73
2021/10/05 00:11:52;;;;;;;6.10;1.83;;;;;;;;;;4927092;28;20183;-72
2021/10/05 00:14:17;;;;;;;2.10;1.37;;;;;;;;;;4947228;28;20207;-73
2021/10/05 00:16:42;;;;;;;2.97;1.60;;;;;;;;;;4954284;28;20266;-72
2021/10/05 00:19:08;;;;;;;2.50;1.40;;;;;;;;;;4954874;28;20195;-74
2021/10/05 00:21:33;;;;;;;6.60;1.63;;;;;;;;;;4960429;28;20175;-73
2021/10/05 00:23:58;;;;;;;4.13;1.33;;;;;;;;;;4959439;28;20243;-73
2021/10/05 00:26:23;;;;;;;3.47;1.90;;;;;;;;;;4957684;28;20242;-73
2021/10/05 00:28:49;;;;;;;3.33;1.77;;;;;;;;;;4945587;28;20588;-73
2021/10/05 00:31:15;;;;;;;2.07;1.93;;;;;;;;;;4944842;28;20203;-73
2021/10/05 00:33:40;;;;;;;3.90;1.67;;;;;;;;;;4937514;28;20207;-73
2021/10/05 00:36:05;;;;;;;2.47;1.90;;;;;;;;;;4940120;28;20444;-73
2021/10/05 00:38:31;;;;;;;2.20;1.80;;;;;;;;;;4952312;28;20256;-73
2021/10/05 00:40:56;;;;;;;2.13;1.93;;;;;;;;;;4946709;28;20226;-74
2021/10/05 00:43:21;;;;;;;3.80;1.80;;;;;;;;;;4939710;28;20215;-73
2021/10/05 00:45:46;;;;;;;2.00;1.37;;;;;;;;;;4936647;28;20183;-73
2021/10/05 00:48:11;;;;;;;5.00;2.10;;;;;;;;;;4934804;28;20195;-73
2021/10/05 00:50:37;;;;;;;2.30;2.10;;;;;;;;;;4936017;28;20215;-72
2021/10/05 00:53:02;;;;;;;4.10;1.90;;;;;;;;;;4935949;29;20199;-72
2021/10/05 00:55:28;;;;;;;1.70;1.50;;;;;;;;;;4938143;28;20589;-72
2021/10/05 00:57:53;;;;;;;3.13;1.50;;;;;;;;;;4936823;28;20187;-72
2021/10/05 01:00:19;;;;;;;2.87;1.97;;;;;;;;;;4938632;28;20661;-75
2021/10/05 01:02:45;;;;;;;1.80;1.63;;;;;;;;;;4935830;28;20203;-74
2021/10/05 01:05:10;;;;;;;2.27;1.77;;;;;;;;;;4936162;28;20450;-73
2021/10/05 01:07:35;;;;;;;5.60;2.27;;;;;;;;;;4936258;28;20668;-74
2021/10/05 01:10:01;;;;;;;2.23;1.50;;;;;;;;;;4935220;28;20213;-74
2021/10/05 01:12:26;;;;;;;1.63;1.50;;;;;;;;;;4938000;28;21127;-74
2021/10/05 01:14:51;;;;;;;1.80;1.70;;;;;;;;;;4935997;28;20226;-74
2021/10/05 01:17:17;;;;;;;3.97;1.97;;;;;;;;;;4929378;28;20187;-73
2021/10/05 01:19:42;;;;;;;2.00;1.67;;;;;;;;;;4933245;28;20179;-73
2021/10/05 01:22:07;;;;;;;7.33;2.57;;;;;;;;;;4935396;28;20347;-72
2021/10/05 01:24:32;;;;;;;1.87;1.60;;;;;;;;;;4935173;28;20230;-72
2021/10/05 01:26:58;;;;;;;3.10;1.60;;;;;;;;;;4932043;28;20207;-72
2021/10/05 01:29:27;;;;;;;2.03;1.70;;;;;;;;;;4930803;28;20271;-72
2021/10/05 01:31:54;;;;;;;3.07;1.77;;;;;;;;;;4930403;28;20258;-72
2021/10/05 01:34:20;;;;;;;3.60;1.80;;;;;;;;;;4933146;28;20435;-72
2021/10/05 01:36:46;;;;;;;4.90;1.87;;;;;;;;;;4934907;28;20477;-72
2021/10/05 01:39:22;;;;;;;1.67;1.57;;;;;;;;;;4933333;28;20209;-72
2021/10/05 01:41:47;;;;;;;2.13;1.47;;;;;;;;;;4933991;28;20438;-72
2021/10/05 01:44:13;;;;;;;2.80;1.73;;;;;;;;;;4932576;28;20967;-75
2021/10/05 01:46:38;;;;;;;2.37;1.70;;;;;;;;;;4925648;28;20561;-73
2021/10/05 01:49:03;;;;;;;1.77;1.50;;;;;;;;;;4932032;28;20195;-73
2021/10/05 01:51:29;;;;;;;4.27;1.80;;;;;;;;;;4933980;28;20331;-73
2021/10/05 01:53:54;;;;;;;2.67;1.53;;;;;;;;;;4935694;28;20203;-73
2021/10/05 01:56:19;;;;;;;2.20;1.80;;;;;;;;;;4933858;28;20830;-73
2021/10/05 01:58:44;;;;;;;2.90;2.10;;;;;;;;;;4933456;28;20537;-73
2021/10/05 02:01:10;;;;;;;2.70;1.83;;;;;;;;;;4936778;28;20258;-73
2021/10/05 02:03:35;;;;;;;5.20;1.93;;;;;;;;;;4935641;28;20287;-73
2021/10/05 02:06:01;;;;;;;2.80;1.73;;;;;;;;;;4934555;28;20199;-73
2021/10/05 02:08:26;;;;;;;3.73;1.87;;;;;;;;;;4932943;28;20263;-73
2021/10/05 02:10:51;;;;;;;8.10;2.30;;;;;;;;;;4939324;28;20204;-73
2021/10/05 02:13:16;;;;;;;4.20;1.73;;;;;;;;;;4939269;28;20217;-73
2021/10/05 02:15:42;;;;;;;3.10;1.60;;;;;;;;;;4934408;28;20660;-73
2021/10/05 02:18:07;;;;;;;5.50;1.63;;;;;;;;;;4939371;28;20696;-73
2021/10/05 02:20:33;;;;;;;3.97;1.57;;;;;;;;;;4934606;28;20219;-73
2021/10/05 02:22:58;;;;;;;2.07;1.60;;;;;;;;;;4936764;28;20210;-73
2021/10/05 02:25:24;;;;;;;4.83;2.23;;;;;;;;;;4934421;28;20280;-73
2021/10/05 02:27:49;;;;;;;3.70;1.70;;;;;;;;;;4938723;28;20731;-74
2021/10/05 02:30:14;;;;;;;1.97;1.83;;;;;;;;;;4936316;28;20218;-73
2021/10/05 02:32:41;;;;;;;2.67;1.83;;;;;;;;;;4940332;28;20206;-73
2021/10/05 02:35:07;;;;;;;3.00;2.00;;;;;;;;;;4937183;28;20192;-73
2021/10/05 02:37:32;;;;;;;4.23;1.90;;;;;;;;;;4936712;28;20450;-73
2021/10/05 02:40:01;;;;;;;1.87;1.60;;;;;;;;;;4936890;28;20197;-73
2021/10/05 02:42:27;;;;;;;2.90;1.77;;;;;;;;;;4934323;28;20610;-73
2021/10/05 02:44:55;;;;;;;2.17;1.80;;;;;;;;;;4934476;28;20446;-73
2021/10/05 02:47:21;;;;;;;2.33;1.73;;;;;;;;;;4937317;28;20179;-73
2021/10/05 02:49:46;;;;;;;3.17;2.03;;;;;;;;;;4937938;28;20455;-74
2021/10/05 02:52:12;;;;;;;3.30;1.70;;;;;;;;;;4931373;28;20207;-73
2021/10/05 02:54:37;;;;;;;3.40;1.83;;;;;;;;;;4936322;28;20314;-73
2021/10/05 02:57:02;;;;;;;2.10;2.00;;;;;;;;;;4935144;28;20427;-73
2021/10/05 02:59:28;;;;;;;4.07;2.27;;;;;;;;;;4934406;28;20182;-73
2021/10/05 03:01:54;;;;;;;2.50;2.30;;;;;;;;;;4932370;28;20188;-73
2021/10/05 03:04:19;;;;;;;3.47;2.13;;;;;;;;;;4936596;28;20794;-73
2021/10/05 03:06:44;;;;;;;2.40;2.20;;;;;;;;;;4935352;28;20180;-73
2021/10/05 03:09:10;;;;;;;1.87;1.77;;;;;;;;;;4933340;28;20371;-73
2021/10/05 03:11:35;;;;;;;2.10;1.80;;;;;;;;;;4929979;28;20210;-73
2021/10/05 03:14:00;;;;;;;4.67;2.20;;;;;;;;;;4935868;28;20250;-73
2021/10/05 03:16:25;;;;;;;2.43;2.23;;;;;;;;;;4939541;28;20179;-73
2021/10/05 03:18:51;;;;;;;2.07;1.87;;;;;;;;;;4941003;28;20199;-73
2021/10/05 03:21:16;;;;;;;7.60;2.03;;;;;;;;;;4933023;28;20226;-73
2021/10/05 03:23:42;;;;;;;2.30;2.10;;;;;;;;;;4935305;28;20215;-73
2021/10/05 03:26:07;;;;;;;2.20;2.00;;;;;;;;;;4934322;28;20551;-73
2021/10/05 03:28:32;;;;;;;4.33;2.20;;;;;;;;;;4935324;28;20641;-74
2021/10/05 03:30:59;;;;;;;3.53;2.23;;;;;;;;;;4930908;28;20207;-74
2021/10/05 03:33:24;;;;;;;3.50;2.03;;;;;;;;;;4932714;28;20274;-76
2021/10/05 03:35:49;;;;;;;2.93;2.10;;;;;;;;;;4936255;28;20973;-73
2021/10/05 03:38:15;;;;;;;3.30;2.00;;;;;;;;;;4931411;28;20192;-73
2021/10/05 03:40:40;;;;;;;2.20;2.00;;;;;;;;;;4932948;28;20172;-73
2021/10/05 03:43:05;;;;;;;2.50;2.30;;;;;;;;;;4935309;28;20207;-73
2021/10/05 03:45:30;;;;;;;2.70;2.37;;;;;;;;;;4936112;28;20780;-73
2021/10/05 03:47:56;;;;;;;2.50;2.30;;;;;;;;;;4934126;28;20686;-73
2021/10/05 03:50:21;;;;;;;4.23;2.60;;;;;;;;;;4936299;28;20208;-73
2021/10/05 03:52:46;;;;;;;2.20;2.00;;;;;;;;;;4935905;28;20675;-73
2021/10/05 03:55:12;;;;;;;2.37;2.10;;;;;;;;;;4934470;28;20206;-73
2021/10/05 03:57:38;;;;;;;3.00;2.43;;;;;;;;;;4933489;28;20184;-73
2021/10/05 04:00:04;;;;;;;2.53;2.40;;;;;;;;;;4931253;28;20191;-72
2021/10/05 04:02:29;;;;;;;3.30;2.77;;;;;;;;;;4933897;28;20474;-73
2021/10/05 04:04:55;;;;;;;4.73;2.73;;;;;;;;;;4935640;28;20203;-73
2021/10/05 04:07:20;;;;;;;5.17;2.87;;;;;;;;;;4936665;28;24427;-73
2021/10/05 04:09:45;;;;;;;4.27;2.73;;;;;;;;;;4937594;28;20293;-73
2021/10/05 04:12:10;;;;;;;2.93;2.53;;;;;;;;;;4936395;28;20242;-73
2021/10/05 04:14:38;;;;;;;2.90;2.70;;;;;;;;;;4939946;28;20183;-73
2021/10/05 04:17:03;;;;;;;2.80;2.60;;;;;;;;;;4942371;28;20242;-73
2021/10/05 04:19:29;;;;;;;3.40;2.87;;;;;;;;;;4936338;28;21287;-73
2021/10/05 04:21:54;;;;;;;4.17;2.70;;;;;;;;;;4936040;28;20200;-72
2021/10/05 04:24:19;;;;;;;2.40;2.07;;;;;;;;;;4938453;28;20605;-73
2021/10/05 04:26:44;;;;;;;2.70;2.50;;;;;;;;;;4940055;28;20184;-72
2021/10/05 04:29:10;;;;;;;3.10;2.23;;;;;;;;;;4936657;28;20226;-73
2021/10/05 04:31:37;;;;;;;2.80;2.60;;;;;;;;;;4937764;28;20202;-73
2021/10/05 04:34:02;;;;;;;2.70;2.30;;;;;;;;;;4938489;28;20211;-73
2021/10/05 04:36:28;;;;;;;3.33;3.10;;;;;;;;;;4938484;28;20854;-73
2021/10/05 04:38:53;;;;;;;2.90;2.70;;;;;;;;;;4936919;28;20190;-73
2021/10/05 04:41:18;;;;;;;3.80;2.80;;;;;;;;;;4934065;28;20191;-73
2021/10/05 04:43:43;;;;;;;3.03;2.80;;;;;;;;;;4935705;28;20940;-73
2021/10/05 04:46:09;;;;;;;2.80;2.60;;;;;;;;;;4934346;28;20179;-73
2021/10/05 04:48:34;;;;;;;2.40;2.20;;;;;;;;;;4931610;28;20601;-72
2021/10/05 04:50:59;;;;;;;3.20;3.00;;;;;;;;;;4932112;28;20274;-74
2021/10/05 04:53:24;;;;;;;3.50;3.20;;;;;;;;;;4938733;28;20199;-73
2021/10/05 04:55:50;;;;;;;2.83;2.63;;;;;;;;;;4937641;28;20590;-73
2021/10/05 04:58:15;;;;;;;3.20;2.77;;;;;;;;;;4939795;28;20180;-73
2021/10/05 05:00:40;;;;;;;2.83;2.47;;;;;;;;;;4937706;28;20183;-73
2021/10/05 05:03:05;;;;;;;3.63;3.33;;;;;;;;;;4936580;28;20577;-73
2021/10/05 05:05:30;;;;;;;3.33;3.03;;;;;;;;;;4938630;28;20222;-73
2021/10/05 05:07:57;;;;;;;2.90;2.60;;;;;;;;;;4932635;28;20225;-74
2021/10/05 05:10:22;;;;;;;5.30;2.90;;;;;;;;;;4935224;28;20653;-74
2021/10/05 05:12:47;;;;;;;3.40;2.83;;;;;;;;;;4931028;28;20465;-73
2021/10/05 05:15:13;;;;;;;3.33;3.10;;;;;;;;;;4933900;28;20191;-73
2021/10/05 05:17:38;;;;;;;3.00;2.80;;;;;;;;;;4935401;28;20210;-73
2021/10/05 05:20:04;;;;;;;4.63;3.20;;;;;;;;;;4933969;28;20780;-73
2021/10/05 05:22:29;;;;;;;4.90;3.57;;;;;;;;;;4935492;28;20627;-73
2021/10/05 05:24:54;;;;;;;3.87;3.23;;;;;;;;;;4939368;28;20202;-73
2021/10/05 05:27:21;;;;;;;3.27;3.00;;;;;;;;;;4943060;28;20179;-73
2021/10/05 05:29:46;;;;;;;3.53;3.10;;;;;;;;;;4934927;28;20218;-74
2021/10/05 05:32:12;;;;;;;3.63;3.33;;;;;;;;;;4934248;28;21128;-74
2021/10/05 05:34:37;;;;;;;4.40;2.83;;;;;;;;;;4934947;28;20180;-73
2021/10/05 05:37:06;;;;;;;3.43;3.13;;;;;;;;;;4935053;28;20974;-73
2021/10/05 05:39:31;;;;;;;4.33;2.80;;;;;;;;;;4935765;28;20250;-73
2021/10/05 05:41:56;;;;;;;4.43;3.37;;;;;;;;;;4934975;28;20439;-73
2021/10/05 05:44:22;;;;;;;4.53;3.67;;;;;;;;;;4937285;28;20683;-73
2021/10/05 05:46:47;;;;;;;4.70;3.50;;;;;;;;;;4935828;28;20188;-74
2021/10/05 05:49:13;;;;;;;5.10;3.80;;;;;;;;;;4937247;28;20230;-74
2021/10/05 05:51:38;;;;;;;3.73;3.43;;;;;;;;;;4937384;28;20671;-73
2021/10/05 05:54:04;;;;;;;3.77;3.40;;;;;;;;;;4934565;28;20455;-74
2021/10/05 05:56:29;;;;;;;4.43;3.30;;;;;;;;;;4938292;28;20499;-74
2021/10/05 05:58:55;;;;;;;3.20;3.00;;;;;;;;;;4940253;28;20180;-73
2021/10/05 06:01:21;;;;;;;3.93;3.60;;;;;;;;;;4936120;28;20563;-73
2021/10/05 06:03:49;;;;;;;4.33;3.53;;;;;;;;;;4935874;28;20566;-73
2021/10/05 06:06:15;;;;;;;6.57;3.80;;;;;;;;;;4938883;28;20616;-74
2021/10/05 06:08:40;;;;;;;3.60;3.30;;;;;;;;;;4938591;28;20498;-74
2021/10/05 06:11:06;;;;;;;3.40;3.20;;;;;;;;;;4940184;28;20459;-74
2021/10/05 06:13:31;;;;;;;5.50;3.83;;;;;;;;;;4946286;28;20202;-74
2021/10/05 06:15:56;;;;;;;6.77;3.30;;;;;;;;;;4933479;28;20195;-74
2021/10/05 06:18:22;;;;;;;2.90;2.70;;;;;;;;;;4936365;28;20183;-74
2021/10/05 06:20:47;;;;;;;4.00;3.60;;;;;;;;;;4941017;28;20180;-74
2021/10/05 06:23:13;;;;;;;3.40;3.10;;;;;;;;;;4934229;28;20578;-74
2021/10/05 06:25:40;;;;;;;6.17;3.90;;;;;;;;;;4931801;28;20648;-74
2021/10/05 06:28:06;;;;;;;4.23;3.83;;;;;;;;;;4932376;28;20250;-73
2021/10/05 06:30:31;;;;;;;4.10;3.77;;;;;;;;;;4928624;28;20458;-74
2021/10/05 06:32:56;;;;;;;3.73;3.43;;;;;;;;;;4933660;28;20238;-74
2021/10/05 06:35:26;;;;;;;4.53;4.10;;;;;;;;;;4932592;28;20245;-74
2021/10/05 06:37:54;;;;;;;4.13;3.60;;;;;;;;;;4933909;28;20274;-74
2021/10/05 06:40:20;;;;;;;4.13;3.83;;;;;;;;;;4937179;28;20435;-74
2021/10/05 06:42:45;;;;;;;5.40;4.17;;;;;;;;;;4938952;28;20455;-73
2021/10/05 06:45:10;;;;;;;3.93;3.60;;;;;;;;;;4932769;28;20597;-74
2021/10/05 06:47:35;;;;;;;4.00;3.60;;;;;;;;;;4937842;28;20191;-74
2021/10/05 06:50:04;;;;;;;3.97;3.67;;;;;;;;;;4934966;28;20187;-73
2021/10/05 06:52:32;;;;;;;4.60;3.90;;;;;;;;;;4936359;28;20195;-74
2021/10/05 06:54:57;;;;;;;4.50;3.57;;;;;;;;;;4935943;28;20473;-74
2021/10/05 06:57:23;;;;;;;4.00;3.70;;;;;;;;;;4932688;28;20517;-74
2021/10/05 06:59:48;;;;;;;7.87;4.20;;;;;;;;;;4938509;28;20183;-74
2021/10/05 07:02:13;;;;;;;4.73;3.90;;;;;;;;;;4930829;28;20213;-73
2021/10/05 07:04:39;;;;;;;4.90;4.40;;;;;;;;;;4933643;28;20187;-73
2021/10/05 07:07:04;;;;;;;4.43;4.13;;;;;;;;;;4934414;28;20183;-73
2021/10/05 07:09:29;;;;;;;4.67;4.27;;;;;;;;;;4935236;28;20716;-74
2021/10/05 07:11:54;;;;;;;4.50;4.20;;;;;;;;;;4936327;28;20218;-73
2021/10/05 07:14:20;;;;;;;5.20;4.70;;;;;;;;;;4936852;28;20202;-73
2021/10/05 07:16:45;;;;;;;3.70;3.40;;;;;;;;;;4935239;28;20187;-74
2021/10/05 07:19:10;;;;;;;5.13;4.63;;;;;;;;;;4937481;28;20194;-73
2021/10/05 07:21:35;;;;;;;7.83;4.70;;;;;;;;;;4936992;28;20258;-73
2021/10/05 07:24:00;;;;;;;5.20;4.70;;;;;;;;;;4937800;28;20217;-73
2021/10/05 07:26:26;;;;;;;5.63;4.80;;;;;;;;;;4936744;28;20183;-73
2021/10/05 07:28:51;;;;;;;5.10;4.60;;;;;;;;;;4935842;28;20674;-74
2021/10/05 07:31:16;;;;;;;5.30;4.70;;;;;;;;;;4937147;28;20199;-73
2021/10/05 07:33:42;;;;;;;4.63;4.33;;;;;;;;;;4938035;28;20210;-74
2021/10/05 07:36:08;;;;;;;5.50;4.90;;;;;;;;;;4936892;28;20187;-74
2021/10/05 07:38:33;;;;;;;5.27;4.87;;;;;;;;;;4935640;28;20439;-74
2021/10/05 07:40:58;;;;;;;5.40;4.90;;;;;;;;;;4934232;28;20669;-74
2021/10/05 07:43:23;;;;;;;5.03;4.63;;;;;;;;;;4938060;28;20213;-74
2021/10/05 07:45:50;;;;;;;5.17;4.67;;;;;;;;;;4944272;28;20195;-74
2021/10/05 07:48:16;;;;;;;5.20;4.73;;;;;;;;;;4952118;28;20242;-74
2021/10/05 07:50:41;;;;;;;11.53;5.00;;;;;;;;;;4959407;28;20470;-72
2021/10/05 07:53:06;;;;;;;6.47;4.57;;;;;;;;;;4965705;28;20222;-71
2021/10/05 07:55:32;;;;;;;4.73;4.33;;;;;;;;;;4951502;28;20191;-72
2021/10/05 07:57:58;;;;;;;5.87;5.37;;;;;;;;;;4943252;28;20175;-72
2021/10/05 08:00:23;;;;;;;5.23;4.73;;;;;;;;;;4941522;28;20194;-72
2021/10/05 08:02:48;;;;;;;5.30;4.83;;;;;;;;;;4941537;28;20265;-71
2021/10/05 08:05:15;;;;;;;6.17;5.10;;;;;;;;;;4941457;28;20191;-72
2021/10/05 08:07:41;;;;;;;5.03;4.63;;;;;;;;;;4940890;28;20322;-72
2021/10/05 08:10:07;;;;;;;10.43;5.60;;;;;;;;;;4941762;28;20556;-72
2021/10/05 08:12:32;;;;;;;5.57;5.10;;;;;;;;;;4942489;28;20203;-72
2021/10/05 08:14:57;;;;;;;8.40;5.33;;;;;;;;;;4941383;28;21130;-74
2021/10/05 08:17:23;;;;;;;7.00;6.30;;;;;;;;;;4933845;28;20191;-72
2021/10/05 08:19:48;;;;;;;5.60;5.10;;;;;;;;;;4935192;28;20617;-72
2021/10/05 08:22:13;;;;;;;5.47;4.97;;;;;;;;;;4936883;28;20242;-72
2021/10/05 08:24:38;;;;;;;6.20;5.60;;;;;;;;;;4937648;28;20190;-72
2021/10/05 08:27:06;;;;;;;5.70;5.20;;;;;;;;;;4941024;28;20179;-72
2021/10/05 08:29:32;;;;;;;5.10;4.70;;;;;;;;;;4940243;28;20184;-73
2021/10/05 08:31:57;;;;;;;5.13;4.73;;;;;;;;;;4939838;28;21061;-73
2021/10/05 08:34:22;;;;;;;9.53;5.33;;;;;;;;;;4937125;28;20431;-73
2021/10/05 08:36:48;;;;;;;5.80;4.80;;;;;;;;;;4938478;28;20210;-73
2021/10/05 08:39:17;;;;;;;5.80;5.27;;;;;;;;;;4937841;28;20191;-73
2021/10/05 08:41:43;;;;;;;5.60;5.10;;;;;;;;;;4938383;28;20183;-73
2021/10/05 08:44:09;;;;;;;5.13;4.73;;;;;;;;;;4939205;28;20450;-73
2021/10/05 08:46:36;;;;;;;6.23;5.67;;;;;;;;;;4938803;28;20430;-73
2021/10/05 08:49:01;;;;;;;4.90;4.50;;;;;;;;;;4938347;28;20259;-73
2021/10/05 08:51:26;;;;;;;5.80;5.30;;;;;;;;;;4940190;28;20541;-73
2021/10/05 08:53:52;;;;;;;6.20;5.60;;;;;;;;;;4934177;28;20207;-73
2021/10/05 08:56:17;;;;;;;5.90;5.40;;;;;;;;;;4934647;28;20199;-73
2021/10/05 08:58:42;;;;;;;6.00;5.30;;;;;;;;;;4936815;28;20180;-75
2021/10/05 09:01:12;;;;;;;7.10;6.00;;;;;;;;;;4941450;28;20179;-74
2021/10/05 09:03:46;;;;;;;5.47;5.07;;;;;;;;;;4938065;28;20211;-74
2021/10/05 09:06:12;;;;;;;6.30;4.93;;;;;;;;;;4939344;28;20533;-74
2021/10/05 09:08:39;;;;;;;5.50;5.00;;;;;;;;;;4944145;28;20581;-74
2021/10/05 09:11:04;;;;;;;6.40;5.37;;;;;;;;;;4942628;28;25145;-74
2021/10/05 09:13:31;;;;;;;5.70;5.30;;;;;;;;;;4942834;28;25130;-74
2021/10/05 09:15:56;;;;;;;5.03;4.63;;;;;;;;;;4938235;28;25122;-74
2021/10/05 09:18:21;;;;;;;5.40;4.90;;;;;;;;;;4940482;28;25112;-74
2021/10/05 09:20:46;;;;;;;5.50;5.00;;;;;;;;;;4941525;28;25136;-73
2021/10/05 09:23:12;;;;;;;5.00;4.50;;;;;;;;;;4934940;28;20241;-73
2021/10/05 09:25:42;;;;;;;5.37;4.83;;;;;;;;;;4942196;28;20294;-73
2021/10/05 09:28:18;;;;;;;5.63;4.87;;;;;;;;;;4936355;28;25148;-73
2021/10/05 09:30:54;;;;;;;5.00;4.10;;;;;;;;;;4933600;28;25186;-74
2021/10/05 09:33:19;;;;;;;4.13;3.83;;;;;;;;;;4938498;28;25126;-73
2021/10/05 09:35:45;;;;;;;5.70;4.17;;;;;;;;;;4937353;28;25138;-73
2021/10/05 09:38:12;;;;;;;4.40;3.90;;;;;;;;;;4938984;28;25100;-73
2021/10/05 09:40:37;;;;;;;4.03;3.73;;;;;;;;;;4935762;28;25110;-73
2021/10/05 09:43:02;;;;;;;4.70;4.10;;;;;;;;;;4939482;28;25098;-73
2021/10/05 09:45:34;;;;;;;4.30;3.90;;;;;;;;;;4937402;28;20205;-73
2021/10/05 09:48:07;;;;;;;3.87;3.57;;;;;;;;;;4935277;28;25164;-73
2021/10/05 09:50:33;;;;;;;4.00;3.70;;;;;;;;;;4937871;28;20481;-73
2021/10/05 09:53:01;;;;;;;3.83;3.53;;;;;;;;;;4935834;28;25112;-73
2021/10/05 09:55:32;;;;;;;5.63;4.00;;;;;;;;;;4938768;28;20445;-73
2021/10/05 09:57:58;;;;;;;3.87;3.57;;;;;;;;;;4936152;28;25102;-73
2021/10/05 10:00:24;;;;;;;4.00;3.70;;;;;;;;;;4933064;28;25114;-73
2021/10/05 10:02:52;;;;;;;4.70;4.30;;;;;;;;;;4940410;28;25070;-73
2021/10/05 10:05:19;;;;;;;4.10;3.70;;;;;;;;;;4935511;28;20457;-73
2021/10/05 10:07:46;;;;;;;4.47;4.00;;;;;;;;;;4933128;28;20925;-73
2021/10/05 10:10:13;;;;;;;4.00;3.60;;;;;;;;;;4930614;28;20450;-73
2021/10/05 10:12:48;;;;;;;3.33;3.03;;;;;;;;;;4932202;28;25099;-73
2021/10/05 10:15:14;;;;;;;4.00;3.70;;;;;;;;;;4936900;28;25141;-73
2021/10/05 10:17:40;;;;;;;8.40;3.30;;;;;;;;;;4934710;28;25131;-73
2021/10/05 10:20:19;;;;;;;4.33;3.80;;;;;;;;;;4945317;28;25210;-73
2021/10/05 10:22:45;;;;;;;4.70;3.67;;;;;;;;;;4938220;28;25090;-73
2021/10/05 10:25:24;;;;;;;3.20;2.90;;;;;;;;;;4939464;28;20822;-73
2021/10/05 10:27:52;;;;;;;4.13;3.23;;;;;;;;;;4937390;28;20190;-73
2021/10/05 10:30:17;;;;;;;6.87;3.20;;;;;;;;;;4938251;28;20540;-73
2021/10/05 10:32:47;;;;;;;4.07;3.67;;;;;;;;;;4938604;28;20458;-73
2021/10/05 10:35:13;;;;;;;4.67;2.90;;;;;;;;;;4939278;28;20198;-73
2021/10/05 10:37:46;;;;;;;3.97;3.57;;;;;;;;;;4939247;28;20500;-73
2021/10/05 10:40:12;;;;;;;3.30;3.10;;;;;;;;;;4941269;28;20480;-73
2021/10/05 10:42:38;;;;;;;3.30;3.00;;;;;;;;;;4940362;28;25122;-73
2021/10/05 10:45:16;;;;;;;3.17;2.77;;;;;;;;;;4936471;28;20464;-73
2021/10/05 10:47:42;;;;;;;3.10;2.80;;;;;;;;;;4934601;28;25060;-73
2021/10/05 10:50:08;;;;;;;4.37;3.10;;;;;;;;;;4933674;28;25117;-73
2021/10/05 10:52:35;;;;;;;3.17;2.97;;;;;;;;;;4933726;28;20332;-73
2021/10/05 10:55:03;;;;;;;3.13;2.83;;;;;;;;;;4933978;28;25104;-73
2021/10/05 10:57:40;;;;;;;4.60;3.17;;;;;;;;;;4936190;28;20433;-73
2021/10/05 11:00:18;;;;;;;2.73;2.53;;;;;;;;;;4933986;28;25117;-73
2021/10/05 11:02:44;;;;;;;3.40;3.10;;;;;;;;;;4936430;28;20965;-73
2021/10/05 11:05:09;;;;;;;2.87;2.43;;;;;;;;;;4935978;28;25121;-73
2021/10/05 11:07:35;;;;;;;3.07;2.57;;;;;;;;;;4934157;28;20449;-73
2021/10/05 11:10:00;;;;;;;2.87;2.67;;;;;;;;;;4932535;28;20201;-72
2021/10/05 11:12:25;;;;;;;2.97;2.60;;;;;;;;;;4931705;28;20210;-73
2021/10/05 11:14:50;;;;;;;3.60;3.30;;;;;;;;;;4938028;28;20187;-73
2021/10/05 11:17:17;;;;;;;3.20;2.90;;;;;;;;;;4932594;28;20208;-74
2021/10/05 11:19:42;;;;;;;3.13;2.83;;;;;;;;;;4934585;28;25078;-74
2021/10/05 11:22:08;;;;;;;2.53;2.33;;;;;;;;;;4933705;28;25117;-73
2021/10/05 11:24:41;;;;;;;2.47;2.27;;;;;;;;;;4935096;28;25102;-74
2021/10/05 11:27:08;;;;;;;3.60;2.90;;;;;;;;;;4947819;28;20889;-73
2021/10/05 11:29:33;;;;;;;2.40;2.20;;;;;;;;;;4941258;28;25115;-73
2021/10/05 11:32:00;;;;;;;3.13;2.93;;;;;;;;;;4940091;28;25101;-74
2021/10/05 11:34:26;;;;;;;2.30;2.10;;;;;;;;;;4935747;28;25136;-74
2021/10/05 11:36:52;;;;;;;3.00;2.80;;;;;;;;;;4953737;28;25169;-73
2021/10/05 11:39:21;;;;;;;2.83;2.33;;;;;;;;;;4942911;28;25103;-74
2021/10/05 11:41:50;;;;;;;3.20;2.77;;;;;;;;;;4940430;28;25135;-73
2021/10/05 11:44:20;;;;;;;5.13;2.40;;;;;;;;;;4943197;28;25174;-74
2021/10/05 11:46:53;;;;;;;9.00;2.13;;;;;;;;;;4935462;28;25106;-73
2021/10/05 11:49:19;;;;;;;3.03;2.23;;;;;;;;;;4939140;28;25172;-74
2021/10/05 11:51:44;;;;;;;2.50;2.37;;;;;;;;;;4940474;28;25116;-74
2021/10/05 11:54:20;;;;;;;3.30;1.97;;;;;;;;;;4943973;28;25052;-73
2021/10/05 11:56:45;;;;;;;2.40;2.00;;;;;;;;;;4938227;28;25168;-74
2021/10/05 11:59:19;;;;;;;2.93;2.27;;;;;;;;;;4936718;28;25119;-74
2021/10/05 12:01:45;;;;;;;2.83;2.10;;;;;;;;;;4937024;28;25079;-74
2021/10/05 12:04:10;;;;;;;4.13;2.53;;;;;;;;;;4938063;28;25130;-74
2021/10/05 12:06:39;;;;;;;2.40;2.20;;;;;;;;;;4939507;28;25105;-74
2021/10/05 12:09:06;;;;;;;2.90;2.27;;;;;;;;;;4940781;28;25083;-74
2021/10/05 12:11:39;;;;;;;4.80;2.10;;;;;;;;;;4931023;28;25158;-73
2021/10/05 12:14:04;;;;;;;2.00;1.80;;;;;;;;;;4937633;28;25174;-74
2021/10/05 12:16:29;;;;;;;2.33;2.13;;;;;;;;;;4938923;28;25110;-74
2021/10/05 12:18:55;;;;;;;3.27;2.60;;;;;;;;;;4939833;28;20195;-74
2021/10/05 12:21:21;;;;;;;2.60;2.40;;;;;;;;;;4937336;28;20218;-75
2021/10/05 12:23:50;;;;;;;2.40;2.20;;;;;;;;;;4941083;28;25052;-74
2021/10/05 12:26:15;;;;;;;2.33;1.97;;;;;;;;;;4940599;28;20184;-74
2021/10/05 12:28:52;;;;;;;2.50;1.83;;;;;;;;;;4938619;28;25128;-74
2021/10/05 12:31:18;;;;;;;2.27;2.07;;;;;;;;;;4936891;28;20754;-73
2021/10/05 12:34:00;;;;;;;2.07;1.93;;;;;;;;;;4940249;28;20577;-76
2021/10/05 12:36:26;;;;;;;2.70;2.50;;;;;;;;;;4936992;28;20226;-75
2021/10/05 12:38:52;;;;;;;2.40;2.20;;;;;;;;;;4933147;28;20443;-74
2021/10/05 12:41:18;;;;;;;3.90;2.33;;;;;;;;;;4932143;28;20819;-73
2021/10/05 12:43:44;;;;;;;2.50;2.20;;;;;;;;;;4935318;28;20206;-73
2021/10/05 12:46:11;;;;;;;2.20;2.00;;;;;;;;;;4935080;28;20225;-73
2021/10/05 12:48:37;;;;;;;2.40;2.20;;;;;;;;;;4936709;28;20446;-73
2021/10/05 12:51:13;;;;;;;1.80;1.60;;;;;;;;;;4927420;28;20514;-73
2021/10/05 12:53:40;;;;;;;4.20;2.10;;;;;;;;;;4932624;28;20520;-73
2021/10/05 12:56:05;;;;;;;4.23;2.27;;;;;;;;;;4937598;28;20431;-74
2021/10/05 12:58:30;;;;;;;2.30;2.10;;;;;;;;;;4933597;28;20462;-73
2021/10/05 13:00:56;;;;;;;2.43;2.23;;;;;;;;;;4930145;28;20542;-74
2021/10/05 13:03:21;;;;;;;2.17;2.07;;;;;;;;;;4937222;28;20245;-73
2021/10/05 13:05:46;;;;;;;4.03;2.37;;;;;;;;;;4939912;28;20179;-73
2021/10/05 13:08:11;;;;;;;2.67;2.47;;;;;;;;;;4938869;28;20723;-74
2021/10/05 13:10:37;;;;;;;3.23;2.40;;;;;;;;;;4933234;28;20321;-73
2021/10/05 13:13:04;;;;;;;3.40;3.10;;;;;;;;;;4930657;28;20293;-73
2021/10/05 13:15:30;;;;;;;2.60;2.40;;;;;;;;;;4937439;28;20187;-74
2021/10/05 13:17:55;;;;;;;2.23;2.10;;;;;;;;;;4936428;28;20435;-74
2021/10/05 13:20:22;;;;;;;2.03;1.93;;;;;;;;;;4936134;28;20214;-74
2021/10/05 13:22:48;;;;;;;2.97;2.77;;;;;;;;;;4936983;28;22446;-73
2021/10/05 13:25:13;;;;;;;4.57;3.20;;;;;;;;;;4938779;28;20454;-74
2021/10/05 13:27:38;;;;;;;3.80;2.73;;;;;;;;;;4940174;28;20707;-73
2021/10/05 13:30:05;;;;;;;3.53;2.77;;;;;;;;;;4936551;28;20191;-74
2021/10/05 13:32:30;;;;;;;3.10;2.57;;;;;;;;;;4938194;28;20195;-74
2021/10/05 13:34:55;;;;;;;2.50;2.10;;;;;;;;;;4934183;28;20790;-74
2021/10/05 13:37:21;;;;;;;2.60;2.40;;;;;;;;;;4936843;28;20289;-74
2021/10/05 13:39:46;;;;;;;2.90;1.97;;;;;;;;;;4935705;28;20273;-74
2021/10/05 13:42:12;;;;;;;2.60;2.40;;;;;;;;;;4938856;28;20200;-74
2021/10/05 13:44:37;;;;;;;5.80;2.00;;;;;;;;;;4940490;28;20183;-74
2021/10/05 13:47:03;;;;;;;2.87;1.87;;;;;;;;;;4934947;28;20180;-74
2021/10/05 13:49:28;;;;;;;2.07;1.90;;;;;;;;;;4939689;28;20636;-74
2021/10/05 13:51:53;;;;;;;2.20;2.00;;;;;;;;;;4933555;28;20557;-74
2021/10/05 13:54:18;;;;;;;1.50;1.40;;;;;;;;;;4923325;28;20262;-74
2021/10/05 13:56:46;;;;;;;2.17;1.97;;;;;;;;;;4934634;28;20232;-74
2021/10/05 13:59:12;;;;;;;3.90;2.70;;;;;;;;;;4936109;28;20216;-74
2021/10/05 14:01:38;;;;;;;2.63;2.40;;;;;;;;;;4934430;28;20436;-74
2021/10/05 14:04:03;;;;;;;3.87;2.67;;;;;;;;;;4937262;28;20199;-73
2021/10/05 14:06:28;;;;;;;5.67;2.53;;;;;;;;;;4933200;28;20971;-74
2021/10/05 14:08:54;;;;;;;2.67;2.47;;;;;;;;;;4936882;28;20265;-74
2021/10/05 14:11:19;;;;;;;2.60;2.00;;;;;;;;;;4937401;28;20295;-74
2021/10/05 14:13:44;;;;;;;3.13;2.30;;;;;;;;;;4932274;28;20203;-74
2021/10/05 14:16:12;;;;;;;2.30;2.20;;;;;;;;;;4934315;28;20603;-74
2021/10/05 14:18:37;;;;;;;2.27;2.07;;;;;;;;;;4926413;28;20179;-73
2021/10/05 14:21:03;;;;;;;2.40;1.80;;;;;;;;;;4932088;28;20443;-74
2021/10/05 14:23:29;;;;;;;2.93;2.00;;;;;;;;;;4932472;28;20207;-73
2021/10/05 14:25:54;;;;;;;7.13;2.63;;;;;;;;;;4938173;28;20943;-73
2021/10/05 14:28:19;;;;;;;3.00;2.10;;;;;;;;;;4938339;28;20278;-73
2021/10/05 14:30:45;;;;;;;2.40;2.23;;;;;;;;;;4945387;28;20207;-73
2021/10/05 14:33:13;;;;;;;6.73;2.30;;;;;;;;;;4936942;28;20279;-73
2021/10/05 14:35:42;;;;;;;2.33;2.17;;;;;;;;;;4934251;28;20804;-73
2021/10/05 14:38:08;;;;;;;2.53;2.33;;;;;;;;;;4935997;28;20427;-74